Time;durP1;ratioP1;P1;durP2;ratioP2;P2;SDS_P1;SDS_P2;PMS_P1;PMS_P2;Temp;Humidity;BMP_temperature;BMP_pressure;BME280_temperature;BME280_humidity;BME280_pressure;Samples;Min_cycle;Max_cycle;Signal;HPM_P1;HPM_P2
2021/04/09 00:00:00;;;;;;;;;;;;;;;20.69;49.57;101505.09;2090468;28;1773;-72
2021/04/09 00:01:00;;;;;;;;;;;;;;;20.71;49.58;101504.78;2091825;28;1149;-75
2021/04/09 00:02:01;;;;;;;;;;;;;;;20.70;49.43;101501.06;2090097;28;1726;-70
2021/04/09 00:03:02;;;;;;;;;;;;;;;20.69;49.66;101502.25;2091356;28;1654;-72
2021/04/09 00:04:04;;;;;;;;;;;;;;;20.69;49.55;101502.25;2091759;28;1377;-71
2021/04/09 00:05:05;;;;;;;;;;;;;;;20.71;49.58;101508.44;2091231;28;1858;-71
2021/04/09 00:06:06;;;;;;;;;;;;;;;20.69;49.64;101499.41;2091821;28;1097;-75
2021/04/09 00:07:06;;;;;;;;;;;;;;;20.70;49.51;101503.91;2091194;28;1636;-74
2021/04/09 00:08:07;;;;;;;;;;;;;;;20.68;49.71;101504.25;2091617;28;1060;-72
2021/04/09 00:09:08;;;;;;;;;;;;;;;20.68;49.48;101500.59;2091219;28;2598;-73
2021/04/09 00:10:09;;;;;;;;;;;;;;;20.68;49.71;101507.09;2083682;28;1759;-72
2021/04/09 00:11:09;;;;;;;;;;;;;;;20.69;49.62;101497.38;2091496;28;1198;-72
2021/04/09 00:12:10;;;;;;;;;;;;;;;20.68;49.50;101498.56;2086367;28;1926;-73
2021/04/09 00:13:11;;;;;;;;;;;;;;;20.69;49.61;101496.56;2091064;28;1852;-73
2021/04/09 00:14:11;;;;;;;;;;;;;;;20.69;49.63;101503.06;2085130;28;1907;-73
2021/04/09 00:15:12;;;;;;;;;;;;;;;20.69;49.61;101491.72;2091788;28;956;-73
2021/04/09 00:16:13;;;;;;;;;;;;;;;20.71;49.50;101499.09;2091832;28;1080;-73
2021/04/09 00:17:14;;;;;;;;;;;;;;;20.69;49.49;101500.22;2090627;28;1766;-73
2021/04/09 00:18:15;;;;;;;;;;;;;;;20.70;49.51;101498.22;2089036;28;1976;-72
2021/04/09 00:19:15;;;;;;;;;;;;;;;20.69;49.55;101493.72;2091172;28;1749;-72
2021/04/09 00:20:16;;;;;;;;;;;;;;;20.70;49.62;101492.53;2088545;28;1720;-72
2021/04/09 00:21:17;;;;;;;;;;;;;;;20.70;49.57;101501.06;2091484;28;1107;-72
2021/04/09 00:22:18;;;;;;;;;;;;;;;20.71;49.49;101496.25;2090947;28;1767;-73
2021/04/09 00:23:18;;;;;;;;;;;;;;;20.72;49.64;101495.06;2090807;28;1827;-73
2021/04/09 00:24:19;;;;;;;;;;;;;;;20.71;49.64;101494.22;2090483;28;1932;-72
2021/04/09 00:25:20;;;;;;;;;;;;;;;20.72;49.63;101495.06;2090744;28;2151;-74
2021/04/09 00:26:21;;;;;;;;;;;;;;;20.72;49.67;101487.34;2092681;28;1261;-72
2021/04/09 00:27:22;;;;;;;;;;;;;;;20.72;49.45;101483.69;2091410;28;1343;-72
2021/04/09 00:28:22;;;;;;;;;;;;;;;20.72;49.51;101478.00;2091256;28;1699;-72
2021/04/09 00:29:23;;;;;;;;;;;;;;;20.72;49.49;101478.00;2089859;28;1806;-73
2021/04/09 00:30:24;;;;;;;;;;;;;;;20.71;49.53;101482.84;2090899;28;1051;-71
2021/04/09 00:31:25;;;;;;;;;;;;;;;20.72;49.50;101475.97;2091404;28;1419;-72
2021/04/09 00:32:26;;;;;;;;;;;;;;;20.71;49.53;101480.00;2089906;28;2085;-73
2021/04/09 00:33:26;;;;;;;;;;;;;;;20.72;49.62;101472.31;2090844;28;1448;-70
2021/04/09 00:34:27;;;;;;;;;;;;;;;20.73;49.60;101483.38;2090919;28;1878;-71
2021/04/09 00:35:28;;;;;;;;;;;;;;;20.74;49.58;101487.03;2091142;28;1910;-71
2021/04/09 00:36:29;;;;;;;;;;;;;;;20.73;49.62;101474.81;2091314;28;1106;-71
2021/04/09 00:37:29;;;;;;;;;;;;;;;20.73;49.49;101474.81;2091200;28;1135;-73
2021/04/09 00:38:30;;;;;;;;;;;;;;;20.73;49.63;101477.69;2090264;28;1711;-72
2021/04/09 00:39:31;;;;;;;;;;;;;;;20.73;49.70;101474.81;2091186;28;1908;-71
2021/04/09 00:40:31;;;;;;;;;;;;;;;20.74;49.67;101470.81;2090932;28;1708;-72
2021/04/09 00:41:32;;;;;;;;;;;;;;;20.73;49.57;101463.47;2091463;28;1032;-71
2021/04/09 00:42:33;;;;;;;;;;;;;;;20.73;49.54;101466.31;2091630;28;1044;-71
2021/04/09 00:43:34;;;;;;;;;;;;;;;20.73;49.50;101457.78;2094058;28;1793;-72
2021/04/09 00:44:34;;;;;;;;;;;;;;;20.74;49.62;101459.44;2091901;28;1716;-72
2021/04/09 00:45:36;;;;;;;;;;;;;;;20.73;49.73;101457.78;2093258;28;1779;-70
2021/04/09 00:46:37;;;;;;;;;;;;;;;20.74;49.67;101459.44;2091350;28;1076;-72
2021/04/09 00:47:37;;;;;;;;;;;;;;;20.74;49.57;101453.75;2091128;28;1722;-72
2021/04/09 00:48:38;;;;;;;;;;;;;;;20.75;49.55;101448.88;2090182;28;1831;-71
2021/04/09 00:49:39;;;;;;;;;;;;;;;20.75;49.57;101446.88;2090585;28;1680;-72
2021/04/09 00:50:40;;;;;;;;;;;;;;;20.75;49.79;101458.25;2091936;28;1123;-72
2021/04/09 00:51:40;;;;;;;;;;;;;;;20.76;49.73;101453.38;2091119;28;1914;-71
2021/04/09 00:52:41;;;;;;;;;;;;;;;20.76;49.62;101445.72;2091265;28;2110;-71
2021/04/09 00:53:42;;;;;;;;;;;;;;;20.76;49.64;101445.72;2090559;28;1842;-72
2021/04/09 00:54:43;;;;;;;;;;;;;;;20.76;49.62;101440.03;2091793;28;1548;-70
2021/04/09 00:55:44;;;;;;;;;;;;;;;20.77;49.62;101443.72;2091408;28;1056;-72
2021/04/09 00:56:44;;;;;;;;;;;;;;;20.75;49.81;101444.03;2091455;28;1299;-72
2021/04/09 00:57:45;;;;;;;;;;;;;;;20.77;49.82;101440.88;2090559;28;1878;-72
2021/04/09 00:58:46;;;;;;;;;;;;;;;20.77;49.75;101440.88;2091164;28;1369;-69
2021/04/09 00:59:47;;;;;;;;;;;;;;;20.77;49.86;101438.03;2090547;28;1736;-70
2021/04/09 01:00:47;;;;;;;;;;;;;;;20.78;49.78;101431.16;2092347;28;1190;-69
2021/04/09 01:01:48;;;;;;;;;;;;;;;20.77;49.86;101430.31;2092146;28;1618;-69
2021/04/09 01:02:49;;;;;;;;;;;;;;;20.77;49.71;101429.50;2091609;28;1771;-70
2021/04/09 01:03:51;;;;;;;;;;;;;;;20.77;49.72;101424.63;2097352;28;2217;-74
2021/04/09 01:04:52;;;;;;;;;;;;;;;20.77;49.90;101430.31;2095071;28;1893;-75
2021/04/09 01:05:52;;;;;;;;;;;;;;;20.78;49.90;101425.47;2095010;28;1066;-70
2021/04/09 01:06:53;;;;;;;;;;;;;;;20.78;49.91;101426.28;2092338;28;1325;-71
2021/04/09 01:07:54;;;;;;;;;;;;;;;20.77;49.88;101423.81;2090517;28;1827;-70
2021/04/09 01:08:55;;;;;;;;;;;;;;;20.78;49.99;101419.78;2090477;28;1958;-71
2021/04/09 01:09:56;;;;;;;;;;;;;;;20.77;50.07;101416.09;2089651;28;1688;-70
2021/04/09 01:10:56;;;;;;;;;;;;;;;20.78;49.99;101420.59;2091318;28;1204;-71
2021/04/09 01:11:57;;;;;;;;;;;;;;;20.78;50.03;101414.91;2091052;28;1910;-72
2021/04/09 01:12:58;;;;;;;;;;;;;;;20.78;49.96;101414.09;2089084;28;1794;-71
2021/04/09 01:13:59;;;;;;;;;;;;;;;20.78;50.01;101406.38;2089828;28;2121;-70
2021/04/09 01:15:00;;;;;;;;;;;;;;;20.78;49.95;101409.22;2089400;28;2342;-70
2021/04/09 01:16:01;;;;;;;;;;;;;;;20.78;50.17;101403.53;2090965;28;1401;-70
2021/04/09 01:17:01;;;;;;;;;;;;;;;20.79;50.06;101398.72;2089996;28;2278;-69
2021/04/09 01:18:03;;;;;;;;;;;;;;;20.80;50.04;101400.38;2088465;28;2040;-70
2021/04/09 01:19:14;;;;;;;;;;;;;;;20.79;50.18;101401.56;2090315;28;1417;-69
2021/04/09 01:20:14;;;;;;;;;;;;;;;20.79;50.19;101399.53;2091328;28;1160;-70
2021/04/09 01:21:15;;;;;;;;;;;;;;;20.80;50.06;101397.53;2090308;28;1847;-70
2021/04/09 01:22:16;;;;;;;;;;;;;;;20.79;50.10;101402.38;2091260;28;1305;-71
2021/04/09 01:23:17;;;;;;;;;;;;;;;20.79;50.12;101393.84;2088944;28;2010;-72
2021/04/09 01:24:18;;;;;;;;;;;;;;;20.79;50.04;101393.84;2090602;28;2221;-71
2021/04/09 01:25:18;;;;;;;;;;;;;;;20.80;50.13;101389.81;2090684;28;1507;-70
2021/04/09 01:26:20;;;;;;;;;;;;;;;20.81;50.14;101396.34;2090647;28;2017;-70
2021/04/09 01:27:21;;;;;;;;;;;;;;;20.80;50.10;101392.66;2093731;28;1541;-70
2021/04/09 01:28:22;;;;;;;;;;;;;;;20.81;50.21;101397.16;2089925;28;1725;-72
2021/04/09 01:29:22;;;;;;;;;;;;;;;20.80;50.16;101386.97;2088434;28;1782;-72
2021/04/09 01:30:23;;;;;;;;;;;;;;;20.80;50.31;101386.97;2089121;28;1051;-72
2021/04/09 01:31:24;;;;;;;;;;;;;;;20.80;50.15;101389.81;2086441;28;1747;-72
2021/04/09 01:32:25;;;;;;;;;;;;;;;20.81;50.27;101388.63;2087794;28;1965;-72
2021/04/09 01:33:26;;;;;;;;;;;;;;;20.82;50.39;101386.66;2087724;28;2535;-70
2021/04/09 01:34:26;;;;;;;;;;;;;;;20.82;50.20;101386.66;2089662;28;1806;-70
2021/04/09 01:35:27;;;;;;;;;;;;;;;20.82;50.29;101380.97;2087094;28;1884;-69
2021/04/09 01:36:28;;;;;;;;;;;;;;;20.82;50.38;101383.81;2090477;28;1017;-71
2021/04/09 01:37:29;;;;;;;;;;;;;;;20.79;50.37;101365.41;2086198;28;1845;-69
2021/04/09 01:38:29;;;;;;;;;;;;;;;20.81;50.33;101371.56;2090536;28;1099;-71
2021/04/09 01:39:30;;;;;;;;;;;;;;;20.81;50.34;101371.56;2086800;28;1940;-71
2021/04/09 01:40:31;;;;;;;;;;;;;;;20.82;50.43;101364.75;2090528;28;1663;-72
2021/04/09 01:41:32;;;;;;;;;;;;;;;20.83;50.47;101376.94;2090963;28;1107;-74
2021/04/09 01:42:32;;;;;;;;;;;;;;;20.82;50.43;101373.25;2091076;28;1119;-73
2021/04/09 01:43:33;;;;;;;;;;;;;;;20.84;50.48;101365.25;2087604;28;1873;-74
2021/04/09 01:44:34;;;;;;;;;;;;;;;20.84;50.50;101365.25;2087625;28;1953;-70
2021/04/09 01:45:35;;;;;;;;;;;;;;;20.85;50.65;101366.06;2090913;28;1561;-71
2021/04/09 01:46:36;;;;;;;;;;;;;;;20.84;50.52;101368.09;2090585;28;1645;-71
2021/04/09 01:47:37;;;;;;;;;;;;;;;20.84;50.52;101359.56;2090487;28;1694;-71
2021/04/09 01:48:38;;;;;;;;;;;;;;;20.85;50.73;101364.06;2089591;28;2124;-76
2021/04/09 01:49:39;;;;;;;;;;;;;;;20.84;50.50;101355.84;2090625;28;1584;-79
2021/04/09 01:50:39;;;;;;;;;;;;;;;20.83;50.63;101355.00;2090680;28;1696;-75
2021/04/09 01:51:40;;;;;;;;;;;;;;;20.82;50.52;101353.34;2090679;28;2154;-71
2021/04/09 01:52:41;;;;;;;;;;;;;;;20.82;50.68;101350.53;2090299;28;1984;-71
2021/04/09 01:53:42;;;;;;;;;;;;;;;20.82;50.61;101350.53;2088371;28;2322;-71
2021/04/09 01:54:42;;;;;;;;;;;;;;;20.83;50.44;101345.66;2089296;28;1787;-71
2021/04/09 01:55:43;;;;;;;;;;;;;;;20.83;50.63;101346.50;2087857;28;1155;-71
2021/04/09 01:56:44;;;;;;;;;;;;;;;20.83;50.52;101348.50;2090327;28;1668;-70
2021/04/09 01:57:45;;;;;;;;;;;;;;;20.83;50.53;101337.97;2091145;28;1052;-70
2021/04/09 01:58:46;;;;;;;;;;;;;;;20.85;50.78;101340.47;2094314;28;2146;-71
2021/04/09 01:59:46;;;;;;;;;;;;;;;20.84;50.66;101333.97;2093406;28;1195;-71
2021/04/09 02:00:47;;;;;;;;;;;;;;;20.84;50.75;101339.66;2090641;28;1370;-71
2021/04/09 02:01:48;;;;;;;;;;;;;;;20.86;50.60;101336.44;2090198;28;1678;-72
2021/04/09 02:02:49;;;;;;;;;;;;;;;20.86;50.76;101331.59;2089793;28;1726;-71
2021/04/09 02:03:50;;;;;;;;;;;;;;;20.86;50.85;101325.91;2089420;28;2352;-72
2021/04/09 02:04:51;;;;;;;;;;;;;;;20.86;50.75;101331.59;2090199;28;1685;-72
2021/04/09 02:05:53;;;;;;;;;;;;;;;20.87;50.84;101326.75;2087886;28;1961;-72
2021/04/09 02:06:53;;;;;;;;;;;;;;;20.87;50.72;101327.59;2090093;28;1631;-73
2021/04/09 02:07:54;;;;;;;;;;;;;;;20.87;50.79;101327.59;2087927;28;1772;-72
2021/04/09 02:08:55;;;;;;;;;;;;;;;20.86;50.64;101327.91;2090393;28;2167;-72
2021/04/09 02:09:56;;;;;;;;;;;;;;;20.85;50.67;101321.41;2090303;28;1893;-71
2021/04/09 02:10:57;;;;;;;;;;;;;;;20.85;50.70;101318.53;2087169;28;2318;-71
2021/04/09 02:11:58;;;;;;;;;;;;;;;20.85;50.64;101329.94;2090206;28;1981;-72
2021/04/09 02:12:59;;;;;;;;;;;;;;;20.85;50.58;101324.25;2090920;28;1085;-73
2021/04/09 02:13:59;;;;;;;;;;;;;;;20.86;50.57;101325.91;2090265;28;1753;-72
2021/04/09 02:15:00;;;;;;;;;;;;;;;20.86;50.67;101319.38;2089774;28;1880;-72
2021/04/09 02:16:01;;;;;;;;;;;;;;;20.85;50.72;101321.41;2088792;28;1122;-71
2021/04/09 02:17:02;;;;;;;;;;;;;;;20.87;50.64;101323.91;2089913;28;1707;-72
2021/04/09 02:18:03;;;;;;;;;;;;;;;20.86;50.80;101316.53;2090048;28;1881;-73
2021/04/09 02:19:03;;;;;;;;;;;;;;;20.85;50.72;101318.53;2090541;28;1090;-74
2021/04/09 02:20:04;;;;;;;;;;;;;;;20.86;50.67;101313.69;2090393;28;1789;-74
2021/04/09 02:21:05;;;;;;;;;;;;;;;20.86;50.74;101314.50;2086873;28;1096;-74
2021/04/09 02:22:06;;;;;;;;;;;;;;;20.87;50.83;101321.06;2090032;28;1774;-74
2021/04/09 02:23:06;;;;;;;;;;;;;;;20.87;50.79;101313.38;2090488;28;1660;-74
2021/04/09 02:24:07;;;;;;;;;;;;;;;20.88;50.78;101317.03;2090803;28;1180;-73
2021/04/09 02:25:08;;;;;;;;;;;;;;;20.87;50.78;101310.53;2089253;28;1780;-73
2021/04/09 02:26:09;;;;;;;;;;;;;;;20.86;50.76;101311.69;2090508;28;1167;-71
2021/04/09 02:27:09;;;;;;;;;;;;;;;20.87;50.72;101313.38;2090510;28;1129;-73
2021/04/09 02:28:10;;;;;;;;;;;;;;;20.87;50.74;101313.38;2090809;28;1044;-73
2021/04/09 02:29:11;;;;;;;;;;;;;;;20.86;50.83;101308.00;2090671;28;1122;-74
2021/04/09 02:30:11;;;;;;;;;;;;;;;20.87;50.81;101307.69;2090247;28;1755;-73
2021/04/09 02:31:13;;;;;;;;;;;;;;;20.87;50.76;101304.84;2092338;28;1382;-73
2021/04/09 02:32:13;;;;;;;;;;;;;;;20.87;50.85;101304.84;2089718;28;1962;-74
2021/04/09 02:33:14;;;;;;;;;;;;;;;20.87;50.81;101302.00;2090597;28;1144;-74
2021/04/09 02:34:15;;;;;;;;;;;;;;;20.88;50.87;101299.97;2090477;28;913;-74
2021/04/09 02:35:16;;;;;;;;;;;;;;;20.87;50.92;101293.47;2089949;28;1853;-73
2021/04/09 02:36:16;;;;;;;;;;;;;;;20.87;50.85;101304.00;2089930;28;1657;-74
2021/04/09 02:37:17;;;;;;;;;;;;;;;20.87;50.86;101296.31;2090588;28;1083;-74
2021/04/09 02:38:18;;;;;;;;;;;;;;;20.87;50.97;101296.31;2089768;28;1771;-73
2021/04/09 02:39:19;;;;;;;;;;;;;;;20.87;50.75;101287.78;2090824;28;1172;-73
2021/04/09 02:40:20;;;;;;;;;;;;;;;20.88;50.84;101297.97;2090280;28;981;-73
2021/04/09 02:41:21;;;;;;;;;;;;;;;20.88;51.02;101289.44;2090356;28;1095;-74
2021/04/09 02:42:22;;;;;;;;;;;;;;;20.88;50.85;101292.28;2090058;28;1716;-75
2021/04/09 02:43:22;;;;;;;;;;;;;;;20.89;51.06;101291.09;2089774;28;2039;-72
2021/04/09 02:44:23;;;;;;;;;;;;;;;20.89;51.12;101291.09;2090524;28;1202;-73
2021/04/09 02:45:24;;;;;;;;;;;;;;;20.90;51.15;101284.25;2089837;28;1695;-72
2021/04/09 02:46:25;;;;;;;;;;;;;;;20.90;51.03;101283.41;2080119;28;1979;-73
2021/04/09 02:47:26;;;;;;;;;;;;;;;20.91;51.03;101285.06;2081025;28;1657;-74
2021/04/09 02:48:27;;;;;;;;;;;;;;;20.89;50.99;101274.03;2088725;28;2095;-73
2021/04/09 02:49:27;;;;;;;;;;;;;;;20.89;51.03;101291.09;2090525;28;1215;-73
2021/04/09 02:50:28;;;;;;;;;;;;;;;20.90;50.95;101289.94;2090229;28;1204;-72
2021/04/09 02:51:29;;;;;;;;;;;;;;;20.89;51.03;101285.41;2090051;28;1592;-74
2021/04/09 02:52:30;;;;;;;;;;;;;;;20.90;51.18;101277.72;2089989;28;2056;-70
2021/04/09 02:53:31;;;;;;;;;;;;;;;20.90;51.05;101280.56;2089505;28;1877;-71
2021/04/09 02:54:31;;;;;;;;;;;;;;;20.89;50.94;101276.84;2084567;28;2477;-70
2021/04/09 02:55:33;;;;;;;;;;;;;;;20.91;51.09;101276.53;2089467;28;1770;-70
2021/04/09 02:56:34;;;;;;;;;;;;;;;20.91;51.03;101276.53;2089758;28;1725;-70
2021/04/09 02:57:35;;;;;;;;;;;;;;;20.90;51.12;101275.69;2088005;28;2048;-70
2021/04/09 02:58:35;;;;;;;;;;;;;;;20.91;51.02;101273.69;2090128;28;1661;-70
2021/04/09 02:59:40;;;;;;;;;;;;;;;20.91;51.12;101270.84;2090598;28;1128;-70
2021/04/09 03:00:40;;;;;;;;;;;;;;;20.91;50.93;101270.84;2090271;28;1113;-70
2021/04/09 03:01:41;;;;;;;;;;;;;;;20.91;51.23;101263.13;2090015;28;1703;-71
2021/04/09 03:02:42;;;;;;;;;;;;;;;20.91;51.28;101265.97;2088546;28;1873;-71
2021/04/09 03:03:43;;;;;;;;;;;;;;;20.93;51.15;101264.81;2086953;28;1583;-70
2021/04/09 03:04:47;;;;;;;;;;;;;;;20.91;51.19;101265.97;2089707;28;2168;-70
2021/04/09 03:05:47;;;;;;;;;;;;;;;20.91;51.13;101251.75;2090209;28;1143;-69
2021/04/09 03:06:48;;;;;;;;;;;;;;;20.93;51.07;101256.28;2089475;28;1670;-70
2021/04/09 03:07:49;;;;;;;;;;;;;;;20.91;50.92;101246.06;2089380;28;1809;-71
2021/04/09 03:08:50;;;;;;;;;;;;;;;20.92;51.10;101252.59;2090031;28;2277;-71
2021/04/09 03:09:52;;;;;;;;;;;;;;;20.92;51.09;101249.75;2090214;28;1156;-71
2021/04/09 03:10:52;;;;;;;;;;;;;;;20.93;51.13;101250.59;2090455;28;1115;-70
2021/04/09 03:11:53;;;;;;;;;;;;;;;20.93;51.14;101256.28;2089805;28;1644;-69
2021/04/09 03:12:54;;;;;;;;;;;;;;;20.92;51.16;101246.91;2087806;28;1906;-70
2021/04/09 03:13:54;;;;;;;;;;;;;;;20.93;51.09;101256.28;2088555;28;1917;-69
2021/04/09 03:14:55;;;;;;;;;;;;;;;20.92;51.21;101249.75;2081335;28;2094;-70
2021/04/09 03:15:57;;;;;;;;;;;;;;;20.91;51.21;101248.91;2081640;28;1116;-71
2021/04/09 03:16:58;;;;;;;;;;;;;;;20.93;51.21;101256.28;2089450;28;1702;-71
2021/04/09 03:17:58;;;;;;;;;;;;;;;21.00;52.22;101245.19;2088876;28;1870;-72
2021/04/09 03:18:59;;;;;;;;;;;;;;;20.98;51.37;101244.69;2090481;28;1138;-71
2021/04/09 03:20:00;;;;;;;;;;;;;;;20.95;51.44;101240.56;2090294;28;1125;-71
2021/04/09 03:21:01;;;;;;;;;;;;;;;20.95;51.37;101242.53;2083439;28;1177;-71
2021/04/09 03:22:01;;;;;;;;;;;;;;;20.94;51.25;101240.88;2088011;28;1714;-72
2021/04/09 03:23:02;;;;;;;;;;;;;;;20.94;51.46;101240.88;2087488;28;1745;-73
2021/04/09 03:24:03;;;;;;;;;;;;;;;20.95;51.17;101242.53;2089472;28;1882;-73
2021/04/09 03:25:04;;;;;;;;;;;;;;;20.94;51.33;101238.03;2090039;28;2043;-72
2021/04/09 03:26:04;;;;;;;;;;;;;;;20.94;51.32;101238.03;2088087;28;1906;-73
2021/04/09 03:27:07;;;;;;;;;;;;;;;20.93;51.20;101242.06;2090109;28;1447;-72
2021/04/09 03:28:08;;;;;;;;;;;;;;;20.93;51.27;101227.84;2089829;28;1875;-73
2021/04/09 03:29:09;;;;;;;;;;;;;;;20.93;51.36;101225.84;2089849;28;1742;-72
2021/04/09 03:30:10;;;;;;;;;;;;;;;20.93;51.21;101237.22;2090496;28;1107;-71
2021/04/09 03:31:10;;;;;;;;;;;;;;;20.93;51.11;101228.69;2085902;28;1882;-71
2021/04/09 03:32:16;;;;;;;;;;;;;;;20.93;51.27;101231.53;2089778;28;1556;-71
2021/04/09 03:33:17;;;;;;;;;;;;;;;20.93;51.35;101231.53;2082728;28;1909;-72
2021/04/09 03:34:18;;;;;;;;;;;;;;;20.91;51.32;101226.16;2089195;28;1758;-71
2021/04/09 03:35:18;;;;;;;;;;;;;;;20.93;51.09;101228.69;2090458;28;1333;-71
2021/04/09 03:36:19;;;;;;;;;;;;;;;20.91;51.28;101220.47;2090174;28;1088;-71
2021/04/09 03:37:20;;;;;;;;;;;;;;;20.91;51.24;101231.84;2089529;28;1505;-71
2021/04/09 03:38:21;;;;;;;;;;;;;;;20.92;51.17;101227.00;2090002;28;1733;-71
2021/04/09 03:39:21;;;;;;;;;;;;;;;20.92;51.08;101232.69;2088533;28;1925;-72
2021/04/09 03:40:22;;;;;;;;;;;;;;;20.92;51.16;101221.31;2089535;28;1715;-71
2021/04/09 03:41:23;;;;;;;;;;;;;;;20.90;51.02;101221.66;2089614;28;1699;-71
2021/04/09 03:42:24;;;;;;;;;;;;;;;20.91;51.15;101226.16;2089062;28;1687;-71
2021/04/09 03:43:24;;;;;;;;;;;;;;;20.92;51.03;101221.31;2090409;28;1075;-71
2021/04/09 03:44:25;;;;;;;;;;;;;;;20.91;51.15;101220.47;2089725;28;1603;-71
2021/04/09 03:45:26;;;;;;;;;;;;;;;20.92;50.92;101212.78;2089753;28;1817;-71
2021/04/09 03:46:27;;;;;;;;;;;;;;;20.93;50.98;101227.84;2090430;28;1146;-71
2021/04/09 03:47:28;;;;;;;;;;;;;;;20.90;51.02;101218.81;2089616;28;1823;-71
2021/04/09 03:48:29;;;;;;;;;;;;;;;20.91;51.01;101214.78;2092775;28;1942;-72
2021/04/09 03:49:29;;;;;;;;;;;;;;;20.91;51.03;101214.78;2089316;28;1921;-71
2021/04/09 03:50:30;;;;;;;;;;;;;;;20.90;50.90;101213.13;2090431;28;1172;-71
2021/04/09 03:51:31;;;;;;;;;;;;;;;20.90;50.75;101213.13;2089888;28;1691;-71
2021/04/09 03:52:32;;;;;;;;;;;;;;;20.91;50.92;101208.28;2089770;28;2142;-71
2021/04/09 03:53:32;;;;;;;;;;;;;;;20.89;50.84;101208.59;2090078;28;1076;-71
2021/04/09 03:54:33;;;;;;;;;;;;;;;20.89;50.85;101208.59;2089700;28;1751;-71
2021/04/09 03:55:35;;;;;;;;;;;;;;;20.89;50.80;101200.06;2090172;28;1127;-71
2021/04/09 03:56:35;;;;;;;;;;;;;;;20.90;50.88;101207.44;2090169;28;1460;-71
2021/04/09 03:57:36;;;;;;;;;;;;;;;20.90;50.91;101210.28;2090045;28;1129;-71
2021/04/09 03:58:37;;;;;;;;;;;;;;;20.89;50.99;101205.75;2089183;28;1824;-71
2021/04/09 03:59:38;;;;;;;;;;;;;;;20.91;50.91;101199.75;2088604;28;2353;-71
2021/04/09 04:00:39;;;;;;;;;;;;;;;20.90;50.84;101204.59;2090186;28;993;-71
2021/04/09 04:01:39;;;;;;;;;;;;;;;20.90;50.80;101198.91;2089182;28;1649;-71
2021/04/09 04:02:40;;;;;;;;;;;;;;;20.90;50.68;101198.09;2089831;28;1725;-71
2021/04/09 04:03:41;;;;;;;;;;;;;;;20.91;50.74;101202.59;2089300;28;1758;-71
2021/04/09 04:04:42;;;;;;;;;;;;;;;20.89;50.66;101200.06;2088321;28;2227;-71
2021/04/09 04:05:43;;;;;;;;;;;;;;;20.89;50.68;101194.38;2086643;28;1945;-71
2021/04/09 04:06:43;;;;;;;;;;;;;;;20.90;50.64;101195.25;2088056;28;1250;-71
2021/04/09 04:07:44;;;;;;;;;;;;;;;20.89;50.59;101185.03;2089718;28;1655;-71
2021/04/09 04:08:45;;;;;;;;;;;;;;;20.89;50.63;101183.00;2088975;28;1949;-71
2021/04/09 04:09:46;;;;;;;;;;;;;;;20.89;50.72;101182.19;2090152;28;1184;-71
2021/04/09 04:10:47;;;;;;;;;;;;;;;20.90;50.66;101193.22;2090317;28;1064;-71
2021/04/09 04:11:48;;;;;;;;;;;;;;;20.89;50.59;101190.72;2089528;28;1594;-71
2021/04/09 04:12:50;;;;;;;;;;;;;;;20.88;50.72;101192.72;2089448;28;1991;-71
2021/04/09 04:13:51;;;;;;;;;;;;;;;20.89;50.68;101188.69;2087288;28;1819;-71
2021/04/09 04:14:51;;;;;;;;;;;;;;;20.88;50.50;101192.72;2087315;28;1850;-71
2021/04/09 04:15:52;;;;;;;;;;;;;;;20.89;50.53;101197.22;2089318;28;1690;-71
2021/04/09 04:16:53;;;;;;;;;;;;;;;20.88;50.65;101192.72;2090329;28;1330;-71
2021/04/09 04:17:54;;;;;;;;;;;;;;;20.88;50.51;101186.22;2089356;28;1675;-71
2021/04/09 04:18:54;;;;;;;;;;;;;;;20.88;50.56;101189.88;2088718;28;2028;-71
2021/04/09 04:19:55;;;;;;;;;;;;;;;20.88;50.65;101192.72;2080770;28;1646;-72
2021/04/09 04:20:56;;;;;;;;;;;;;;;20.88;50.54;101189.06;2081011;28;1696;-72
2021/04/09 04:21:57;;;;;;;;;;;;;;;20.87;50.54;101191.06;2090524;28;1143;-72
2021/04/09 04:22:59;;;;;;;;;;;;;;;20.87;50.46;101196.75;2090967;28;1724;-72
2021/04/09 04:24:00;;;;;;;;;;;;;;;20.87;50.60;101199.59;2090612;28;1852;-72
2021/04/09 04:25:00;;;;;;;;;;;;;;;20.87;50.52;101191.06;2091218;28;1685;-71
2021/04/09 04:26:01;;;;;;;;;;;;;;;20.88;50.45;101191.91;2091615;28;1033;-72
2021/04/09 04:27:02;;;;;;;;;;;;;;;20.87;50.53;101191.06;2088853;28;1881;-72
2021/04/09 04:28:03;;;;;;;;;;;;;;;20.88;50.62;101191.91;2091006;28;1643;-71
2021/04/09 04:29:04;;;;;;;;;;;;;;;20.87;50.41;101191.06;2090749;28;1678;-72
2021/04/09 04:30:04;;;;;;;;;;;;;;;20.87;50.44;101191.06;2091627;28;1056;-72
2021/04/09 04:31:05;;;;;;;;;;;;;;;20.87;50.49;101181.72;2091107;28;1387;-72
2021/04/09 04:32:06;;;;;;;;;;;;;;;20.86;50.40;101183.69;2091180;28;1956;-72
2021/04/09 04:33:07;;;;;;;;;;;;;;;20.86;50.48;101186.53;2091130;28;1984;-73
2021/04/09 04:34:08;;;;;;;;;;;;;;;20.86;50.39;101186.53;2090090;28;1913;-72
2021/04/09 04:35:08;;;;;;;;;;;;;;;20.86;50.50;101189.38;2089003;28;1624;-72
2021/04/09 04:36:09;;;;;;;;;;;;;;;20.86;50.51;101182.88;2091415;28;1957;-73
2021/04/09 04:37:10;;;;;;;;;;;;;;;20.86;50.35;101189.38;2091081;28;1433;-73
2021/04/09 04:38:11;;;;;;;;;;;;;;;20.86;50.50;101189.38;2091023;28;1680;-73
2021/04/09 04:39:11;;;;;;;;;;;;;;;20.86;50.50;101186.53;2090142;28;1865;-73
2021/04/09 04:40:12;;;;;;;;;;;;;;;20.86;50.35;101189.38;2091638;28;2157;-73
2021/04/09 04:41:13;;;;;;;;;;;;;;;20.86;50.46;101188.56;2091423;28;1192;-73
2021/04/09 04:42:14;;;;;;;;;;;;;;;20.86;50.52;101186.53;2091487;28;1251;-73
2021/04/09 04:43:14;;;;;;;;;;;;;;;20.87;50.49;101184.56;2090890;28;1730;-74
2021/04/09 04:44:15;;;;;;;;;;;;;;;20.86;50.27;101186.53;2090804;28;2182;-73
2021/04/09 04:45:17;;;;;;;;;;;;;;;20.87;50.32;101184.56;2086893;28;2317;-74
2021/04/09 04:46:18;;;;;;;;;;;;;;;20.85;50.43;101182.03;2091052;28;1560;-73
2021/04/09 04:47:19;;;;;;;;;;;;;;;20.86;50.44;101183.69;2090975;28;1586;-73
2021/04/09 04:48:20;;;;;;;;;;;;;;;20.86;50.38;101186.53;2090915;28;1724;-73
2021/04/09 04:49:21;;;;;;;;;;;;;;;20.87;50.48;101176.03;2090438;28;1794;-73
2021/04/09 04:50:22;;;;;;;;;;;;;;;20.87;50.41;101176.03;2090346;28;1782;-73
2021/04/09 04:51:22;;;;;;;;;;;;;;;20.87;50.33;101176.03;2091037;28;1637;-73
2021/04/09 04:52:23;;;;;;;;;;;;;;;20.86;50.42;101169.47;2091252;28;1567;-74
2021/04/09 04:53:24;;;;;;;;;;;;;;;20.87;50.38;101170.34;2091186;28;1918;-73
2021/04/09 04:54:24;;;;;;;;;;;;;;;20.87;50.38;101167.50;2090500;28;1886;-73
2021/04/09 04:55:25;;;;;;;;;;;;;;;20.88;50.32;101169.16;2087677;28;2342;-74
2021/04/09 04:56:26;;;;;;;;;;;;;;;20.88;50.48;101164.28;2091298;28;1321;-73
2021/04/09 04:57:27;;;;;;;;;;;;;;;20.87;50.35;101167.50;2089835;28;1747;-73
2021/04/09 04:58:27;;;;;;;;;;;;;;;20.88;50.47;101166.31;2091146;28;1090;-74
2021/04/09 04:59:28;;;;;;;;;;;;;;;20.87;50.49;101159.78;2090772;28;1771;-74
2021/04/09 05:00:29;;;;;;;;;;;;;;;20.88;50.31;101160.63;2089867;28;1837;-74
2021/04/09 05:01:30;;;;;;;;;;;;;;;20.87;50.45;101151.25;2091176;28;1323;-73
2021/04/09 05:02:30;;;;;;;;;;;;;;;20.87;50.36;101156.94;2088463;28;1905;-74
2021/04/09 05:03:31;;;;;;;;;;;;;;;20.87;50.33;101154.09;2087372;28;1192;-73
2021/04/09 05:04:32;;;;;;;;;;;;;;;20.88;50.43;101160.63;2091238;28;1071;-73
2021/04/09 05:05:34;;;;;;;;;;;;;;;20.88;50.42;101154.94;2090459;28;1770;-73
2021/04/09 05:06:34;;;;;;;;;;;;;;;20.88;50.31;101154.94;2090941;28;1460;-73
2021/04/09 05:07:35;;;;;;;;;;;;;;;20.87;50.33;101154.09;2091116;28;1806;-74
2021/04/09 05:08:36;;;;;;;;;;;;;;;20.87;50.46;101158.97;2091109;28;1123;-73
2021/04/09 05:09:37;;;;;;;;;;;;;;;20.87;50.35;101159.78;2090700;28;1549;-73
2021/04/09 05:10:37;;;;;;;;;;;;;;;20.87;50.29;101161.81;2090461;28;1924;-74
2021/04/09 05:11:38;;;;;;;;;;;;;;;20.87;50.31;101156.13;2091100;28;1746;-74
2021/04/09 05:12:39;;;;;;;;;;;;;;;20.87;50.44;101159.78;2090230;28;1975;-74
2021/04/09 05:13:40;;;;;;;;;;;;;;;20.88;50.34;101163.47;2090940;28;2342;-73
2021/04/09 05:14:40;;;;;;;;;;;;;;;20.87;50.32;101156.94;2089274;28;1988;-73
2021/04/09 05:15:41;;;;;;;;;;;;;;;20.87;50.41;101144.75;2089017;28;1192;-73
2021/04/09 05:16:42;;;;;;;;;;;;;;;20.86;50.28;101152.41;2089266;28;1831;-73